sensor_id;sensor_type;location;lat;lon;timestamp;pressure;altitude;pressure_sealevel;temperature;humidity
11349;BME280;5729;43.570;27.826;2023-05-23T00:01:34;98724.72;;;16.24;100.00
11349;BME280;5729;43.570;27.826;2023-05-23T00:04:03;98735.59;;;16.24;100.00
11349;BME280;5729;43.570;27.826;2023-05-23T00:06:29;98741.34;;;16.33;100.00
11349;BME280;5729;43.570;27.826;2023-05-23T00:08:55;98737.78;;;16.37;100.00
11349;BME280;5729;43.570;27.826;2023-05-23T00:11:20;98743.72;;;16.28;100.00
11349;BME280;5729;43.570;27.826;2023-05-23T00:13:51;98751.44;;;16.33;100.00
11349;BME280;5729;43.570;27.826;2023-05-23T00:16:17;98744.19;;;16.19;100.00
11349;BME280;5729;43.570;27.826;2023-05-23T00:18:42;98739.03;;;16.28;100.00
11349;BME280;5729;43.570;27.826;2023-05-23T00:21:10;98739.03;;;16.28;100.00
11349;BME280;5729;43.570;27.826;2023-05-23T00:23:35;98738.38;;;16.17;100.00
11349;BME280;5729;43.570;27.826;2023-05-23T00:26:01;98722.81;;;16.18;100.00
11349;BME280;5729;43.570;27.826;2023-05-23T00:28:26;98727.88;;;16.16;100.00
11349;BME280;5729;43.570;27.826;2023-05-23T00:30:52;98730.97;;;16.21;100.00
11349;BME280;5729;43.570;27.826;2023-05-23T00:33:17;98735.72;;;16.07;100.00
11349;BME280;5729;43.570;27.826;2023-05-23T00:35:46;98722.81;;;16.18;100.00
11349;BME280;5729;43.570;27.826;2023-05-23T00:38:12;98729.81;;;16.19;100.00
11349;BME280;5729;43.570;27.826;2023-05-23T00:40:38;98730.38;;;16.00;100.00
11349;BME280;5729;43.570;27.826;2023-05-23T00:43:04;98720.28;;;15.96;100.00
11349;BME280;5729;43.570;27.826;2023-05-23T00:45:30;98721.41;;;16.03;100.00
11349;BME280;5729;43.570;27.826;2023-05-23T00:47:55;98719.41;;;16.07;100.00
11349;BME280;5729;43.570;27.826;2023-05-23T00:50:23;98720.19;;;16.11;100.00
11349;BME280;5729;43.570;27.826;2023-05-23T00:52:49;98714.00;;;16.03;100.00
11349;BME280;5729;43.570;27.826;2023-05-23T00:55:15;98719.13;;;15.97;100.00
11349;BME280;5729;43.570;27.826;2023-05-23T00:57:40;98715.25;;;15.95;100.00
11349;BME280;5729;43.570;27.826;2023-05-23T01:00:09;98719.59;;;15.85;100.00
11349;BME280;5729;43.570;27.826;2023-05-23T01:02:42;98724.28;;;15.81;100.00
11349;BME280;5729;43.570;27.826;2023-05-23T01:05:14;98722.00;;;15.73;100.00
11349;BME280;5729;43.570;27.826;2023-05-23T01:07:42;98717.75;;;15.72;100.00
11349;BME280;5729;43.570;27.826;2023-05-23T01:10:08;98714.22;;;15.78;100.00
11349;BME280;5729;43.570;27.826;2023-05-23T01:15:39;98728.97;;;15.77;100.00
11349;BME280;5729;43.570;27.826;2023-05-23T01:18:13;98723.53;;;15.77;100.00
11349;BME280;5729;43.570;27.826;2023-05-23T01:20:44;98738.25;;;15.83;100.00
11349;BME280;5729;43.570;27.826;2023-05-23T01:29:06;98725.72;;;15.96;100.00
11349;BME280;5729;43.570;27.826;2023-05-23T01:31:36;98731.91;;;16.01;100.00
11349;BME280;5729;43.570;27.826;2023-05-23T01:34:05;98722.22;;;16.00;100.00
11349;BME280;5729;43.570;27.826;2023-05-23T01:36:33;98721.16;;;15.83;100.00
11349;BME280;5729;43.570;27.826;2023-05-23T01:39:00;98731.88;;;16.04;100.00
11349;BME280;5729;43.570;27.826;2023-05-23T01:41:27;98724.09;;;16.06;100.00
11349;BME280;5729;43.570;27.826;2023-05-23T01:43:53;98730.69;;;16.09;100.00
11349;BME280;5729;43.570;27.826;2023-05-23T01:46:20;98721.44;;;15.99;100.00
11349;BME280;5729;43.570;27.826;2023-05-23T01:48:47;98718.25;;;16.08;100.00
11349;BME280;5729;43.570;27.826;2023-05-23T01:51:13;98723.28;;;16.13;100.00
11349;BME280;5729;43.570;27.826;2023-05-23T01:53:39;98724.81;;;16.14;100.00
11349;BME280;5729;43.570;27.826;2023-05-23T01:56:05;98719.72;;;16.16;100.00
11349;BME280;5729;43.570;27.826;2023-05-23T01:58:31;98721.28;;;16.17;100.00
11349;BME280;5729;43.570;27.826;2023-05-23T02:00:56;98722.03;;;16.21;100.00
11349;BME280;5729;43.570;27.826;2023-05-23T02:03:22;98723.59;;;16.18;100.00
11349;BME280;5729;43.570;27.826;2023-05-23T02:05:47;98722.81;;;16.18;100.00
11349;BME280;5729;43.570;27.826;2023-05-23T02:08:12;98720.09;;;16.21;100.00
11349;BME280;5729;43.570;27.826;2023-05-23T02:10:38;98719.72;;;16.19;100.00
11349;BME280;5729;43.570;27.826;2023-05-23T02:13:03;98710.09;;;16.08;100.00
11349;BME280;5729;43.570;27.826;2023-05-23T02:15:29;98725.31;;;15.98;100.00
11349;BME280;5729;43.570;27.826;2023-05-23T02:17:55;98720.28;;;15.96;100.00
11349;BME280;5729;43.570;27.826;2023-05-23T02:20:20;98716.47;;;15.90;100.00
11349;BME280;5729;43.570;27.826;2023-05-23T02:22:45;98721.56;;;15.81;100.00
11349;BME280;5729;43.570;27.826;2023-05-23T02:25:11;98719.28;;;15.73;100.00
11349;BME280;5729;43.570;27.826;2023-05-23T02:27:36;98723.94;;;15.76;100.00
11349;BME280;5729;43.570;27.826;2023-05-23T02:30:02;98724.69;;;15.80;100.00
11349;BME280;5729;43.570;27.826;2023-05-23T02:32:28;98719.63;;;15.82;100.00
11349;BME280;5729;43.570;27.826;2023-05-23T02:34:54;98722.06;;;15.66;100.00
11349;BME280;5729;43.570;27.826;2023-05-23T02:37:19;98725.88;;;15.79;100.00
11349;BME280;5729;43.570;27.826;2023-05-23T02:39:45;98725.03;;;15.82;100.00
11349;BME280;5729;43.570;27.826;2023-05-23T02:42:10;98728.59;;;15.79;100.00
11349;BME280;5729;43.570;27.826;2023-05-23T02:44:35;98735.28;;;15.64;100.00
11349;BME280;5729;43.570;27.826;2023-05-23T02:47:01;98735.25;;;15.67;100.00
11349;BME280;5729;43.570;27.826;2023-05-23T02:49:26;98732.53;;;15.67;100.00
11349;BME280;5729;43.570;27.826;2023-05-23T02:51:52;98737.59;;;15.65;100.00
11349;BME280;5729;43.570;27.826;2023-05-23T02:54:17;98729.44;;;15.65;100.00
11349;BME280;5729;43.570;27.826;2023-05-23T02:56:44;98728.72;;;15.54;100.00
11349;BME280;5729;43.570;27.826;2023-05-23T02:59:10;98736.09;;;15.53;100.00
11349;BME280;5729;43.570;27.826;2023-05-23T03:01:36;98739.59;;;15.47;100.00
11349;BME280;5729;43.570;27.826;2023-05-23T03:04:02;98745.47;;;15.42;100.00
11349;BME280;5729;43.570;27.826;2023-05-23T03:06:28;98741.53;;;15.46;100.00
11349;BME280;5729;43.570;27.826;2023-05-23T03:08:56;98742.34;;;15.43;100.00
11349;BME280;5729;43.570;27.826;2023-05-23T03:11:21;98739.22;;;15.48;100.00
11349;BME280;5729;43.570;27.826;2023-05-23T03:13:47;98739.25;;;15.45;100.00
11349;BME280;5729;43.570;27.826;2023-05-23T03:16:12;98735.44;;;15.32;100.00
11349;BME280;5729;43.570;27.826;2023-05-23T03:18:38;98741.97;;;15.41;100.00
11349;BME280;5729;43.570;27.826;2023-05-23T03:21:06;98748.56;;;15.40;100.00
11349;BME280;5729;43.570;27.826;2023-05-23T03:23:31;98750.91;;;15.42;100.00
11349;BME280;5729;43.570;27.826;2023-05-23T03:25:57;98742.34;;;15.43;100.00
11349;BME280;5729;43.570;27.826;2023-05-23T03:28:24;98747.34;;;15.48;100.00
11349;BME280;5729;43.570;27.826;2023-05-23T03:30:49;98755.09;;;15.50;100.00
11349;BME280;5729;43.570;27.826;2023-05-23T03:33:14;98746.56;;;15.48;100.00
11349;BME280;5729;43.570;27.826;2023-05-23T03:35:40;98753.22;;;15.40;100.00
11349;BME280;5729;43.570;27.826;2023-05-23T03:38:05;98753.22;;;15.40;100.00
11349;BME280;5729;43.570;27.826;2023-05-23T03:40:31;98748.97;;;15.39;100.00
11349;BME280;5729;43.570;27.826;2023-05-23T03:43:07;98751.66;;;15.42;100.00
11349;BME280;5729;43.570;27.826;2023-05-23T03:45:33;98748.19;;;15.42;100.00
11349;BME280;5729;43.570;27.826;2023-05-23T03:47:59;98751.28;;;15.44;100.00
11349;BME280;5729;43.570;27.826;2023-05-23T03:50:24;98749.28;;;15.48;100.00
11349;BME280;5729;43.570;27.826;2023-05-23T03:52:50;98752.84;;;15.41;100.00
11349;BME280;5729;43.570;27.826;2023-05-23T03:55:16;98752.81;;;15.45;100.00
11349;BME280;5729;43.570;27.826;2023-05-23T03:57:47;98756.66;;;15.47;100.00
11349;BME280;5729;43.570;27.826;2023-05-23T04:00:13;98755.94;;;15.43;100.00
11349;BME280;5729;43.570;27.826;2023-05-23T04:02:38;98757.06;;;15.49;100.00
11349;BME280;5729;43.570;27.826;2023-05-23T04:05:05;98757.44;;;15.55;100.00
11349;BME280;5729;43.570;27.826;2023-05-23T04:07:31;98771.41;;;15.50;100.00
11349;BME280;5729;43.570;27.826;2023-05-23T04:09:59;98771.81;;;15.55;100.00
11349;BME280;5729;43.570;27.826;2023-05-23T04:12:24;98765.94;;;15.60;100.00
11349;BME280;5729;43.570;27.826;2023-05-23T04:14:50;98768.66;;;15.64;100.00
11349;BME280;5729;43.570;27.826;2023-05-23T04:17:15;98763.16;;;15.75;100.00
11349;BME280;5729;43.570;27.826;2023-05-23T04:19:41;98770.84;;;15.83;100.00
11349;BME280;5729;43.570;27.826;2023-05-23T04:22:06;98761.13;;;15.89;100.00
11349;BME280;5729;43.570;27.826;2023-05-23T04:24:32;98773.94;;;15.85;100.00
11349;BME280;5729;43.570;27.826;2023-05-23T04:26:57;98770.44;;;15.85;100.00
11349;BME280;5729;43.570;27.826;2023-05-23T04:29:23;98766.50;;;15.93;100.00
11349;BME280;5729;43.570;27.826;2023-05-23T04:31:50;98769.22;;;15.93;100.00
11349;BME280;5729;43.570;27.826;2023-05-23T04:34:16;98766.03;;;16.05;100.00
11349;BME280;5729;43.570;27.826;2023-05-23T04:36:41;98767.16;;;16.11;100.00
11349;BME280;5729;43.570;27.826;2023-05-23T04:39:08;98765.25;;;16.08;100.00
11349;BME280;5729;43.570;27.826;2023-05-23T04:41:34;98770.47;;;16.33;100.00
11349;BME280;5729;43.570;27.826;2023-05-23T04:44:01;98770.00;;;16.42;100.00
11349;BME280;5729;43.570;27.826;2023-05-23T04:46:26;98764.91;;;16.47;100.00
11349;BME280;5729;43.570;27.826;2023-05-23T04:48:53;98779.41;;;16.78;100.00
11349;BME280;5729;43.570;27.826;2023-05-23T04:51:22;98783.16;;;16.91;100.00
11349;BME280;5729;43.570;27.826;2023-05-23T04:53:50;98783.44;;;17.00;100.00
11349;BME280;5729;43.570;27.826;2023-05-23T04:56:15;98788.41;;;17.09;100.00
11349;BME280;5729;43.570;27.826;2023-05-23T04:58:45;98777.72;;;17.25;100.00
11349;BME280;5729;43.570;27.826;2023-05-23T05:01:11;98788.78;;;17.41;100.00
11349;BME280;5729;43.570;27.826;2023-05-23T05:03:38;98778.63;;;17.46;100.00
11349;BME280;5729;43.570;27.826;2023-05-23T05:06:04;98778.75;;;17.65;100.00
11349;BME280;5729;43.570;27.826;2023-05-23T05:08:30;98782.38;;;17.86;100.00
11349;BME280;5729;43.570;27.826;2023-05-23T05:10:56;98782.69;;;17.91;100.00
11349;BME280;5729;43.570;27.826;2023-05-23T05:13:22;98781.75;;;18.01;100.00
11349;BME280;5729;43.570;27.826;2023-05-23T05:15:47;98772.78;;;18.01;100.00
11349;BME280;5729;43.570;27.826;2023-05-23T05:18:12;98784.13;;;17.99;100.00
11349;BME280;5729;43.570;27.826;2023-05-23T05:20:38;98788.81;;;18.22;100.00
11349;BME280;5729;43.570;27.826;2023-05-23T05:23:03;98780.88;;;18.31;100.00
11349;BME280;5729;43.570;27.826;2023-05-23T05:25:29;98790.09;;;18.64;100.00
11349;BME280;5729;43.570;27.826;2023-05-23T05:28:00;98786.28;;;18.81;100.00
11349;BME280;5729;43.570;27.826;2023-05-23T05:30:34;98797.47;;;18.87;100.00
11349;BME280;5729;43.570;27.826;2023-05-23T05:33:04;98785.72;;;19.10;100.00
11349;BME280;5729;43.570;27.826;2023-05-23T05:35:30;98786.47;;;19.30;100.00
11349;BME280;5729;43.570;27.826;2023-05-23T05:37:56;98780.53;;;19.35;100.00
11349;BME280;5729;43.570;27.826;2023-05-23T05:40:22;98775.13;;;19.32;100.00
11349;BME280;5729;43.570;27.826;2023-05-23T05:42:47;98773.94;;;19.33;100.00
11349;BME280;5729;43.570;27.826;2023-05-23T05:45:13;98779.81;;;19.31;100.00
11349;BME280;5729;43.570;27.826;2023-05-23T05:47:38;98785.38;;;19.28;100.00
11349;BME280;5729;43.570;27.826;2023-05-23T05:50:05;98778.72;;;19.29;100.00
11349;BME280;5729;43.570;27.826;2023-05-23T05:52:31;98780.13;;;19.37;100.00
11349;BME280;5729;43.570;27.826;2023-05-23T05:54:58;98789.66;;;19.48;100.00
11349;BME280;5729;43.570;27.826;2023-05-23T05:57:24;98785.22;;;19.54;100.00
11349;BME280;5729;43.570;27.826;2023-05-23T05:59:49;98783.91;;;19.63;100.00
11349;BME280;5729;43.570;27.826;2023-05-23T06:02:15;98787.25;;;19.70;100.00
11349;BME280;5729;43.570;27.826;2023-05-23T06:04:40;98779.66;;;19.94;100.00
11349;BME280;5729;43.570;27.826;2023-05-23T06:07:06;98779.59;;;20.14;100.00
11349;BME280;5729;43.570;27.826;2023-05-23T06:09:31;98772.44;;;20.36;100.00
11349;BME280;5729;43.570;27.826;2023-05-23T06:11:56;98766.75;;;20.43;100.00
11349;BME280;5729;43.570;27.826;2023-05-23T06:14:22;98766.81;;;20.72;100.00
11349;BME280;5729;43.570;27.826;2023-05-23T06:16:47;98771.72;;;20.93;100.00
11349;BME280;5729;43.570;27.826;2023-05-23T06:19:13;98769.94;;;20.87;100.00
11349;BME280;5729;43.570;27.826;2023-05-23T06:21:38;98776.59;;;21.15;100.00
11349;BME280;5729;43.570;27.826;2023-05-23T06:24:04;98775.25;;;21.07;100.00
11349;BME280;5729;43.570;27.826;2023-05-23T06:26:29;98766.63;;;21.08;100.00
11349;BME280;5729;43.570;27.826;2023-05-23T06:28:55;98769.66;;;20.97;100.00
11349;BME280;5729;43.570;27.826;2023-05-23T06:31:20;98775.47;;;21.12;100.00
11349;BME280;5729;43.570;27.826;2023-05-23T06:33:46;98784.69;;;21.06;100.00
11349;BME280;5729;43.570;27.826;2023-05-23T06:36:11;98786.03;;;20.85;100.00
11349;BME280;5729;43.570;27.826;2023-05-23T06:38:36;98783.16;;;20.76;100.00
11349;BME280;5729;43.570;27.826;2023-05-23T06:41:02;98782.38;;;20.75;100.00
11349;BME280;5729;43.570;27.826;2023-05-23T06:43:28;98775.94;;;20.82;100.00
11349;BME280;5729;43.570;27.826;2023-05-23T06:45:54;98768.16;;;20.80;100.00
11349;BME280;5729;43.570;27.826;2023-05-23T06:48:19;98770.53;;;20.78;100.00
11349;BME280;5729;43.570;27.826;2023-05-23T06:50:45;98765.25;;;20.87;100.00
11349;BME280;5729;43.570;27.826;2023-05-23T06:53:10;98761.13;;;21.08;100.00
11349;BME280;5729;43.570;27.826;2023-05-23T06:55:35;98772.19;;;21.46;100.00
11349;BME280;5729;43.570;27.826;2023-05-23T06:58:01;98780.75;;;21.48;100.00
11349;BME280;5729;43.570;27.826;2023-05-23T07:00:29;98780.59;;;21.26;100.00
11349;BME280;5729;43.570;27.826;2023-05-23T07:02:55;98774.41;;;21.10;100.00
11349;BME280;5729;43.570;27.826;2023-05-23T07:05:26;98778.56;;;21.14;100.00
11349;BME280;5729;43.570;27.826;2023-05-23T07:07:51;98775.28;;;21.48;100.00
11349;BME280;5729;43.570;27.826;2023-05-23T07:10:17;98766.28;;;21.48;100.00
11349;BME280;5729;43.570;27.826;2023-05-23T07:12:43;98766.28;;;21.60;100.00
11349;BME280;5729;43.570;27.826;2023-05-23T07:15:10;98761.25;;;21.59;100.00
11349;BME280;5729;43.570;27.826;2023-05-23T07:17:35;98752.81;;;21.53;100.00
11349;BME280;5729;43.570;27.826;2023-05-23T07:20:01;98759.81;;;21.54;100.00
11349;BME280;5729;43.570;27.826;2023-05-23T07:22:28;98765.50;;;21.47;100.00
11349;BME280;5729;43.570;27.826;2023-05-23T07:24:54;98764.72;;;21.47;100.00
11349;BME280;5729;43.570;27.826;2023-05-23T07:27:20;98771.13;;;21.15;100.00
11349;BME280;5729;43.570;27.826;2023-05-23T07:29:46;98767.22;;;20.99;100.00
11349;BME280;5729;43.570;27.826;2023-05-23T07:32:11;98776.66;;;20.98;100.00
11349;BME280;5729;43.570;27.826;2023-05-23T07:34:37;98771.97;;;20.99;100.00
11349;BME280;5729;43.570;27.826;2023-05-23T07:37:03;98763.75;;;21.12;100.00
11349;BME280;5729;43.570;27.826;2023-05-23T07:39:29;98767.13;;;21.45;100.00
11349;BME280;5729;43.570;27.826;2023-05-23T07:41:54;98777.38;;;21.69;100.00
11349;BME280;5729;43.570;27.826;2023-05-23T07:44:20;98759.94;;;21.76;100.00
11349;BME280;5729;43.570;27.826;2023-05-23T07:46:45;98762.22;;;21.90;100.00
11349;BME280;5729;43.570;27.826;2023-05-23T07:49:11;98768.63;;;22.00;100.00
11349;BME280;5729;43.570;27.826;2023-05-23T07:51:36;98767.84;;;22.12;100.00
11349;BME280;5729;43.570;27.826;2023-05-23T07:54:02;98756.41;;;22.14;100.00
11349;BME280;5729;43.570;27.826;2023-05-23T07:56:27;98769.66;;;22.75;100.00
11349;BME280;5729;43.570;27.826;2023-05-23T07:58:53;98770.13;;;23.39;100.00
11349;BME280;5729;43.570;27.826;2023-05-23T08:01:18;98767.16;;;23.86;100.00
11349;BME280;5729;43.570;27.826;2023-05-23T08:03:44;98770.91;;;24.10;100.00
11349;BME280;5729;43.570;27.826;2023-05-23T08:06:09;98768.84;;;24.51;100.00
11349;BME280;5729;43.570;27.826;2023-05-23T08:08:35;98760.94;;;26.01;100.00
11349;BME280;5729;43.570;27.826;2023-05-23T08:11:02;98759.50;;;27.74;86.51
11349;BME280;5729;43.570;27.826;2023-05-23T08:13:27;98752.34;;;27.09;84.74
11349;BME280;5729;43.570;27.826;2023-05-23T08:15:53;98756.00;;;26.76;90.82
11349;BME280;5729;43.570;27.826;2023-05-23T08:18:18;98757.50;;;27.16;89.30
11349;BME280;5729;43.570;27.826;2023-05-23T08:20:44;98747.94;;;28.11;77.55
11349;BME280;5729;43.570;27.826;2023-05-23T08:23:10;98759.03;;;27.32;81.07
11349;BME280;5729;43.570;27.826;2023-05-23T08:25:37;98758.03;;;26.04;91.40
11349;BME280;5729;43.570;27.826;2023-05-23T08:28:02;98753.13;;;25.66;100.00
11349;BME280;5729;43.570;27.826;2023-05-23T08:30:28;98742.13;;;25.48;100.00
11349;BME280;5729;43.570;27.826;2023-05-23T08:32:54;98741.50;;;25.53;100.00
11349;BME280;5729;43.570;27.826;2023-05-23T08:35:21;98737.09;;;26.60;98.29
11349;BME280;5729;43.570;27.826;2023-05-23T08:37:47;98735.56;;;28.27;82.90
11349;BME280;5729;43.570;27.826;2023-05-23T08:40:21;98751.06;;;29.88;65.67
11349;BME280;5729;43.570;27.826;2023-05-23T08:42:48;98742.53;;;30.46;61.27
11349;BME280;5729;43.570;27.826;2023-05-23T08:45:14;98739.56;;;30.55;56.47
11349;BME280;5729;43.570;27.826;2023-05-23T08:47:44;98741.63;;;29.80;58.64
11349;BME280;5729;43.570;27.826;2023-05-23T08:50:15;98743.22;;;28.32;64.72
11349;BME280;5729;43.570;27.826;2023-05-23T08:52:58;98740.13;;;27.45;75.14
11349;BME280;5729;43.570;27.826;2023-05-23T08:55:26;98747.56;;;28.18;74.67
11349;BME280;5729;43.570;27.826;2023-05-23T08:57:52;98738.75;;;28.60;69.65
11349;BME280;5729;43.570;27.826;2023-05-23T09:00:19;98740.88;;;29.17;63.92
11349;BME280;5729;43.570;27.826;2023-05-23T09:02:45;98742.72;;;29.88;60.26
11349;BME280;5729;43.570;27.826;2023-05-23T09:05:12;98743.47;;;29.89;58.57
11349;BME280;5729;43.570;27.826;2023-05-23T09:07:38;98735.97;;;28.80;63.51
11349;BME280;5729;43.570;27.826;2023-05-23T09:10:08;98749.84;;;28.60;68.38
11349;BME280;5729;43.570;27.826;2023-05-23T09:12:34;98730.19;;;28.38;67.46
11349;BME280;5729;43.570;27.826;2023-05-23T09:15:06;98737.56;;;27.41;76.61
11349;BME280;5729;43.570;27.826;2023-05-23T09:17:34;98742.09;;;26.71;82.33
11349;BME280;5729;43.570;27.826;2023-05-23T09:20:01;98740.84;;;26.00;93.53
11349;BME280;5729;43.570;27.826;2023-05-23T09:22:27;98737.09;;;26.60;96.58
11349;BME280;5729;43.570;27.826;2023-05-23T09:24:54;98739.06;;;26.84;86.78
11349;BME280;5729;43.570;27.826;2023-05-23T09:27:20;98743.03;;;26.68;90.96
11349;BME280;5729;43.570;27.826;2023-05-23T09:29:46;98747.69;;;25.81;95.86
11349;BME280;5729;43.570;27.826;2023-05-23T09:32:19;98735.69;;;25.60;99.66
11349;BME280;5729;43.570;27.826;2023-05-23T09:34:56;98733.25;;;25.44;100.00
11349;BME280;5729;43.570;27.826;2023-05-23T09:37:43;98739.41;;;25.81;93.82
11349;BME280;5729;43.570;27.826;2023-05-23T09:40:12;98744.09;;;25.57;94.80
11349;BME280;5729;43.570;27.826;2023-05-23T09:42:42;98746.88;;;25.48;100.00
11349;BME280;5729;43.570;27.826;2023-05-23T09:45:08;98746.97;;;24.84;100.00
11349;BME280;5729;43.570;27.826;2023-05-23T09:47:34;98750.31;;;24.24;100.00
11349;BME280;5729;43.570;27.826;2023-05-23T09:50:00;98749.34;;;24.09;100.00
11349;BME280;5729;43.570;27.826;2023-05-23T09:52:25;98766.66;;;23.69;100.00
11349;BME280;5729;43.570;27.826;2023-05-23T09:54:53;98767.38;;;23.39;100.00
11349;BME280;5729;43.570;27.826;2023-05-23T09:57:21;98758.13;;;23.24;100.00
11349;BME280;5729;43.570;27.826;2023-05-23T09:59:53;98756.47;;;23.04;100.00
11349;BME280;5729;43.570;27.826;2023-05-23T10:05:21;98781.00;;;22.30;100.00
11349;BME280;5729;43.570;27.826;2023-05-23T10:07:52;98786.38;;;21.95;100.00
11349;BME280;5729;43.570;27.826;2023-05-23T10:10:18;98787.38;;;21.63;100.00
11349;BME280;5729;43.570;27.826;2023-05-23T10:12:49;98784.56;;;21.38;100.00
11349;BME280;5729;43.570;27.826;2023-05-23T10:15:17;98780.72;;;21.35;100.00
11349;BME280;5729;43.570;27.826;2023-05-23T10:17:56;98783.63;;;21.16;100.00
11349;BME280;5729;43.570;27.826;2023-05-23T10:20:28;98783.34;;;20.97;100.00
11349;BME280;5729;43.570;27.826;2023-05-23T10:22:59;98780.84;;;21.03;100.00
11349;BME280;5729;43.570;27.826;2023-05-23T10:25:26;98770.66;;;20.75;100.00
11349;BME280;5729;43.570;27.826;2023-05-23T10:27:56;98790.47;;;20.95;100.00
11349;BME280;5729;43.570;27.826;2023-05-23T10:30:26;98788.91;;;20.94;100.00
11349;BME280;5729;43.570;27.826;2023-05-23T10:32:53;98784.88;;;20.98;100.00
11349;BME280;5729;43.570;27.826;2023-05-23T10:35:44;98777.78;;;21.14;100.00
11349;BME280;5729;43.570;27.826;2023-05-23T10:41:17;98778.38;;;20.92;100.00
11349;BME280;5729;43.570;27.826;2023-05-23T10:46:15;98780.25;;;21.24;100.00
11349;BME280;5729;43.570;27.826;2023-05-23T10:48:42;98777.09;;;21.26;100.00
11349;BME280;5729;43.570;27.826;2023-05-23T10:51:09;98775.69;;;21.21;100.00
11349;BME280;5729;43.570;27.826;2023-05-23T10:53:37;98788.59;;;21.21;100.00
11349;BME280;5729;43.570;27.826;2023-05-23T10:56:07;98780.94;;;20.99;100.00
11349;BME280;5729;43.570;27.826;2023-05-23T10:58:34;98778.66;;;21.11;100.00
11349;BME280;5729;43.570;27.826;2023-05-23T11:01:08;98774.41;;;21.10;100.00
11349;BME280;5729;43.570;27.826;2023-05-23T11:06:49;98776.38;;;21.51;100.00
11349;BME280;5729;43.570;27.826;2023-05-23T11:09:16;98777.59;;;21.88;100.00
11349;BME280;5729;43.570;27.826;2023-05-23T11:12:15;98779.63;;;22.47;100.00
11349;BME280;5729;43.570;27.826;2023-05-23T11:15:00;98778.78;;;22.72;100.00
11349;BME280;5729;43.570;27.826;2023-05-23T11:17:30;98780.94;;;22.55;100.00
11349;BME280;5729;43.570;27.826;2023-05-23T11:20:04;98780.47;;;22.91;100.00
11349;BME280;5729;43.570;27.826;2023-05-23T11:22:34;98780.75;;;23.06;100.00
11349;BME280;5729;43.570;27.826;2023-05-23T11:25:01;98780.75;;;23.06;100.00
11349;BME280;5729;43.570;27.826;2023-05-23T11:32:32;98775.13;;;23.31;100.00
11349;BME280;5729;43.570;27.826;2023-05-23T11:35:01;98786.06;;;23.22;100.00
11349;BME280;5729;43.570;27.826;2023-05-23T11:37:27;98779.44;;;23.63;100.00
11349;BME280;5729;43.570;27.826;2023-05-23T11:39:53;98774.09;;;24.09;100.00
11349;BME280;5729;43.570;27.826;2023-05-23T11:42:18;98770.84;;;24.50;100.00
11349;BME280;5729;43.570;27.826;2023-05-23T11:44:47;98766.59;;;25.04;100.00
11349;BME280;5729;43.570;27.826;2023-05-23T11:47:13;98759.28;;;25.61;100.00
11349;BME280;5729;43.570;27.826;2023-05-23T11:49:38;98754.66;;;26.00;100.00
11349;BME280;5729;43.570;27.826;2023-05-23T11:52:05;98758.06;;;25.95;100.00
11349;BME280;5729;43.570;27.826;2023-05-23T11:54:31;98749.69;;;25.29;100.00
11349;BME280;5729;43.570;27.826;2023-05-23T11:56:57;98751.69;;;25.38;100.00
11349;BME280;5729;43.570;27.826;2023-05-23T11:59:24;98755.19;;;25.39;100.00
11349;BME280;5729;43.570;27.826;2023-05-23T12:01:51;98755.31;;;25.44;100.00
11349;BME280;5729;43.570;27.826;2023-05-23T12:04:17;98748.59;;;25.87;100.00
11349;BME280;5729;43.570;27.826;2023-05-23T12:06:46;98746.41;;;26.48;88.16
11349;BME280;5729;43.570;27.826;2023-05-23T12:09:13;98744.97;;;26.53;81.26
11349;BME280;5729;43.570;27.826;2023-05-23T12:11:39;98741.81;;;26.84;79.79
11349;BME280;5729;43.570;27.826;2023-05-23T12:14:06;98741.03;;;26.68;84.59
11349;BME280;5729;43.570;27.826;2023-05-23T12:16:32;98740.34;;;27.56;74.30
11349;BME280;5729;43.570;27.826;2023-05-23T12:18:59;98734.47;;;27.83;70.11
11349;BME280;5729;43.570;27.826;2023-05-23T12:21:31;98740.00;;;28.18;70.88
11349;BME280;5729;43.570;27.826;2023-05-23T12:24:30;98728.38;;;28.35;62.66
11349;BME280;5729;43.570;27.826;2023-05-23T12:27:00;98729.50;;;28.69;62.00
11349;BME280;5729;43.570;27.826;2023-05-23T12:29:33;98729.91;;;28.36;63.12
11349;BME280;5729;43.570;27.826;2023-05-23T12:32:01;98732.44;;;28.60;64.31
11349;BME280;5729;43.570;27.826;2023-05-23T12:34:27;98725.88;;;28.37;63.81
11349;BME280;5729;43.570;27.826;2023-05-23T12:36:57;98719.44;;;28.92;63.59
11349;BME280;5729;43.570;27.826;2023-05-23T12:39:29;98710.31;;;29.11;61.55
11349;BME280;5729;43.570;27.826;2023-05-23T12:42:07;98730.44;;;28.60;68.47
11349;BME280;5729;43.570;27.826;2023-05-23T12:44:33;98711.47;;;28.99;67.72
11349;BME280;5729;43.570;27.826;2023-05-23T12:46:59;98722.84;;;28.55;66.52
11349;BME280;5729;43.570;27.826;2023-05-23T12:49:24;98726.78;;;27.43;75.42
11349;BME280;5729;43.570;27.826;2023-05-23T12:51:50;98718.75;;;27.45;74.91
11349;BME280;5729;43.570;27.826;2023-05-23T12:54:16;98718.94;;;27.71;72.33
11349;BME280;5729;43.570;27.826;2023-05-23T12:56:41;98717.72;;;28.28;66.17
11349;BME280;5729;43.570;27.826;2023-05-23T12:59:07;98716.03;;;28.36;62.21
11349;BME280;5729;43.570;27.826;2023-05-23T13:01:33;98708.31;;;27.85;69.97
11349;BME280;5729;43.570;27.826;2023-05-23T13:04:00;98698.84;;;27.41;67.87
11349;BME280;5729;43.570;27.826;2023-05-23T13:06:26;98705.44;;;27.29;70.54
11349;BME280;5729;43.570;27.826;2023-05-23T13:08:51;98699.88;;;27.94;69.18
11349;BME280;5729;43.570;27.826;2023-05-23T13:11:21;98699.97;;;28.40;64.24
11349;BME280;5729;43.570;27.826;2023-05-23T13:13:47;98697.56;;;27.92;65.15
11349;BME280;5729;43.570;27.826;2023-05-23T13:16:13;98699.66;;;27.97;63.95
11349;BME280;5729;43.570;27.826;2023-05-23T13:18:38;98695.69;;;28.18;66.65